sensor_id;sensor_type;location;lat;lon;timestamp;P1;durP1;ratioP1;P2;durP2;ratioP2
17566;SDS011;8901;52.088;5.084;2022-11-15T00:01:39;29.80;;;25.77;;
17566;SDS011;8901;52.088;5.084;2022-11-15T00:04:07;33.37;;;27.57;;
17566;SDS011;8901;52.088;5.084;2022-11-15T00:06:34;27.53;;;24.43;;
17566;SDS011;8901;52.088;5.084;2022-11-15T00:09:02;30.97;;;26.17;;
17566;SDS011;8901;52.088;5.084;2022-11-15T00:11:29;33.47;;;28.07;;
17566;SDS011;8901;52.088;5.084;2022-11-15T00:13:57;27.30;;;24.50;;
17566;SDS011;8901;52.088;5.084;2022-11-15T00:16:27;30.03;;;26.80;;
17566;SDS011;8901;52.088;5.084;2022-11-15T00:18:54;34.13;;;29.40;;
17566;SDS011;8901;52.088;5.084;2022-11-15T00:21:22;34.10;;;28.93;;
17566;SDS011;8901;52.088;5.084;2022-11-15T00:23:49;39.30;;;32.80;;
17566;SDS011;8901;52.088;5.084;2022-11-15T00:26:18;32.13;;;26.90;;
17566;SDS011;8901;52.088;5.084;2022-11-15T00:28:45;32.43;;;27.30;;
17566;SDS011;8901;52.088;5.084;2022-11-15T00:31:12;34.00;;;27.00;;
17566;SDS011;8901;52.088;5.084;2022-11-15T00:33:42;36.57;;;29.90;;
17566;SDS011;8901;52.088;5.084;2022-11-15T00:36:09;31.00;;;26.20;;
17566;SDS011;8901;52.088;5.084;2022-11-15T00:38:37;32.17;;;25.37;;
17566;SDS011;8901;52.088;5.084;2022-11-15T00:41:06;36.37;;;29.53;;
17566;SDS011;8901;52.088;5.084;2022-11-15T00:43:35;39.07;;;31.63;;
17566;SDS011;8901;52.088;5.084;2022-11-15T00:46:04;29.90;;;26.10;;
17566;SDS011;8901;52.088;5.084;2022-11-15T00:48:34;34.90;;;27.53;;
17566;SDS011;8901;52.088;5.084;2022-11-15T00:51:01;39.50;;;29.47;;
17566;SDS011;8901;52.088;5.084;2022-11-15T00:53:28;40.67;;;29.50;;
17566;SDS011;8901;52.088;5.084;2022-11-15T00:55:56;29.10;;;24.63;;
17566;SDS011;8901;52.088;5.084;2022-11-15T00:58:23;35.97;;;26.67;;
17566;SDS011;8901;52.088;5.084;2022-11-15T01:00:52;36.17;;;28.73;;
17566;SDS011;8901;52.088;5.084;2022-11-15T01:03:23;34.77;;;28.53;;
17566;SDS011;8901;52.088;5.084;2022-11-15T01:05:58;32.03;;;26.47;;
17566;SDS011;8901;52.088;5.084;2022-11-15T01:08:34;34.33;;;26.90;;
17566;SDS011;8901;52.088;5.084;2022-11-15T01:11:01;33.37;;;27.80;;
17566;SDS011;8901;52.088;5.084;2022-11-15T01:19:42;35.10;;;28.00;;
17566;SDS011;8901;52.088;5.084;2022-11-15T01:25:13;34.23;;;27.77;;
17566;SDS011;8901;52.088;5.084;2022-11-15T01:27:44;32.53;;;26.83;;
17566;SDS011;8901;52.088;5.084;2022-11-15T01:30:21;34.57;;;28.70;;
17566;SDS011;8901;52.088;5.084;2022-11-15T01:35:54;32.23;;;28.23;;
17566;SDS011;8901;52.088;5.084;2022-11-15T01:47:17;31.57;;;27.17;;
17566;SDS011;8901;52.088;5.084;2022-11-15T01:49:53;35.33;;;27.47;;
17566;SDS011;8901;52.088;5.084;2022-11-15T01:52:38;35.57;;;28.87;;
17566;SDS011;8901;52.088;5.084;2022-11-15T02:01:06;35.80;;;29.57;;
17566;SDS011;8901;52.088;5.084;2022-11-15T02:12:31;44.53;;;31.87;;
17566;SDS011;8901;52.088;5.084;2022-11-15T02:14:59;36.40;;;30.63;;
17566;SDS011;8901;52.088;5.084;2022-11-15T02:17:32;40.83;;;30.87;;
17566;SDS011;8901;52.088;5.084;2022-11-15T02:22:51;36.00;;;28.63;;
17566;SDS011;8901;52.088;5.084;2022-11-15T02:25:30;39.50;;;30.00;;
17566;SDS011;8901;52.088;5.084;2022-11-15T02:28:20;38.07;;;30.27;;
17566;SDS011;8901;52.088;5.084;2022-11-15T02:30:51;37.30;;;30.40;;
17566;SDS011;8901;52.088;5.084;2022-11-15T02:33:24;36.70;;;28.80;;
17566;SDS011;8901;52.088;5.084;2022-11-15T02:35:57;33.87;;;26.30;;
17566;SDS011;8901;52.088;5.084;2022-11-15T02:38:27;34.37;;;28.53;;
17566;SDS011;8901;52.088;5.084;2022-11-15T02:40:57;38.90;;;29.30;;
17566;SDS011;8901;52.088;5.084;2022-11-15T02:43:27;30.90;;;26.47;;
17566;SDS011;8901;52.088;5.084;2022-11-15T02:46:16;29.90;;;25.13;;
17566;SDS011;8901;52.088;5.084;2022-11-15T02:48:45;35.13;;;24.93;;
17566;SDS011;8901;52.088;5.084;2022-11-15T02:51:12;35.57;;;24.13;;
17566;SDS011;8901;52.088;5.084;2022-11-15T02:53:40;31.03;;;24.70;;
17566;SDS011;8901;52.088;5.084;2022-11-15T02:56:07;38.80;;;28.30;;
17566;SDS011;8901;52.088;5.084;2022-11-15T03:01:28;40.23;;;27.57;;
17566;SDS011;8901;52.088;5.084;2022-11-15T03:03:59;38.60;;;27.40;;
17566;SDS011;8901;52.088;5.084;2022-11-15T03:06:31;32.73;;;25.10;;
17566;SDS011;8901;52.088;5.084;2022-11-15T03:09:02;38.37;;;29.60;;
17566;SDS011;8901;52.088;5.084;2022-11-15T03:11:31;33.93;;;25.73;;
17566;SDS011;8901;52.088;5.084;2022-11-15T03:16:41;30.90;;;25.43;;
17566;SDS011;8901;52.088;5.084;2022-11-15T03:19:13;30.80;;;24.37;;
17566;SDS011;8901;52.088;5.084;2022-11-15T03:21:40;30.80;;;22.10;;
17566;SDS011;8901;52.088;5.084;2022-11-15T03:24:08;30.40;;;24.47;;
17566;SDS011;8901;52.088;5.084;2022-11-15T03:26:36;28.83;;;23.20;;
17566;SDS011;8901;52.088;5.084;2022-11-15T03:29:04;35.53;;;26.97;;
17566;SDS011;8901;52.088;5.084;2022-11-15T03:31:34;33.13;;;26.83;;
17566;SDS011;8901;52.088;5.084;2022-11-15T03:34:19;32.63;;;26.50;;
17566;SDS011;8901;52.088;5.084;2022-11-15T03:36:46;28.80;;;23.30;;
17566;SDS011;8901;52.088;5.084;2022-11-15T03:39:14;31.47;;;26.60;;
17566;SDS011;8901;52.088;5.084;2022-11-15T03:41:42;33.50;;;26.73;;
17566;SDS011;8901;52.088;5.084;2022-11-15T03:44:11;27.43;;;24.73;;
17566;SDS011;8901;52.088;5.084;2022-11-15T03:46:42;28.53;;;24.67;;
17566;SDS011;8901;52.088;5.084;2022-11-15T03:49:12;28.53;;;23.93;;
17566;SDS011;8901;52.088;5.084;2022-11-15T03:51:41;27.87;;;23.87;;
17566;SDS011;8901;52.088;5.084;2022-11-15T03:54:08;26.97;;;24.27;;
17566;SDS011;8901;52.088;5.084;2022-11-15T03:56:36;29.00;;;25.77;;
17566;SDS011;8901;52.088;5.084;2022-11-15T03:59:03;27.13;;;23.63;;
17566;SDS011;8901;52.088;5.084;2022-11-15T04:01:30;26.60;;;23.43;;
17566;SDS011;8901;52.088;5.084;2022-11-15T04:03:57;23.10;;;20.73;;
17566;SDS011;8901;52.088;5.084;2022-11-15T04:06:24;23.43;;;18.60;;
17566;SDS011;8901;52.088;5.084;2022-11-15T04:08:59;25.70;;;22.73;;
17566;SDS011;8901;52.088;5.084;2022-11-15T04:11:26;24.50;;;22.13;;
17566;SDS011;8901;52.088;5.084;2022-11-15T04:13:53;24.67;;;22.10;;
17566;SDS011;8901;52.088;5.084;2022-11-15T04:16:20;26.07;;;23.57;;
17566;SDS011;8901;52.088;5.084;2022-11-15T04:18:48;24.63;;;22.20;;
17566;SDS011;8901;52.088;5.084;2022-11-15T04:21:35;26.03;;;23.33;;
17566;SDS011;8901;52.088;5.084;2022-11-15T04:24:26;26.67;;;24.07;;
17566;SDS011;8901;52.088;5.084;2022-11-15T04:26:53;24.43;;;22.00;;
17566;SDS011;8901;52.088;5.084;2022-11-15T04:29:20;23.73;;;21.23;;
17566;SDS011;8901;52.088;5.084;2022-11-15T04:32:03;21.57;;;19.27;;
17566;SDS011;8901;52.088;5.084;2022-11-15T04:34:31;25.23;;;22.50;;
17566;SDS011;8901;52.088;5.084;2022-11-15T04:36:58;22.77;;;20.63;;
17566;SDS011;8901;52.088;5.084;2022-11-15T04:39:39;24.33;;;22.03;;
17566;SDS011;8901;52.088;5.084;2022-11-15T04:42:07;22.63;;;20.37;;
17566;SDS011;8901;52.088;5.084;2022-11-15T04:44:34;23.87;;;21.37;;
17566;SDS011;8901;52.088;5.084;2022-11-15T04:47:01;24.23;;;21.83;;
17566;SDS011;8901;52.088;5.084;2022-11-15T04:49:28;24.97;;;22.77;;
17566;SDS011;8901;52.088;5.084;2022-11-15T04:51:56;21.90;;;19.47;;
17566;SDS011;8901;52.088;5.084;2022-11-15T04:54:23;22.33;;;20.23;;
17566;SDS011;8901;52.088;5.084;2022-11-15T04:56:51;21.47;;;19.57;;
17566;SDS011;8901;52.088;5.084;2022-11-15T04:59:18;21.40;;;19.47;;
17566;SDS011;8901;52.088;5.084;2022-11-15T05:01:46;22.53;;;20.27;;
17566;SDS011;8901;52.088;5.084;2022-11-15T05:04:13;21.47;;;19.47;;
17566;SDS011;8901;52.088;5.084;2022-11-15T05:06:45;22.77;;;20.43;;
17566;SDS011;8901;52.088;5.084;2022-11-15T05:09:13;20.50;;;18.60;;
17566;SDS011;8901;52.088;5.084;2022-11-15T05:11:40;22.20;;;20.10;;
17566;SDS011;8901;52.088;5.084;2022-11-15T05:14:09;20.73;;;18.87;;
17566;SDS011;8901;52.088;5.084;2022-11-15T05:16:36;18.97;;;17.13;;
17566;SDS011;8901;52.088;5.084;2022-11-15T05:19:03;20.93;;;19.07;;
17566;SDS011;8901;52.088;5.084;2022-11-15T05:21:31;20.63;;;18.33;;
17566;SDS011;8901;52.088;5.084;2022-11-15T05:23:59;20.87;;;18.90;;
17566;SDS011;8901;52.088;5.084;2022-11-15T05:26:26;22.20;;;20.10;;
17566;SDS011;8901;52.088;5.084;2022-11-15T05:28:55;24.77;;;22.30;;
17566;SDS011;8901;52.088;5.084;2022-11-15T05:31:24;21.13;;;19.17;;
17566;SDS011;8901;52.088;5.084;2022-11-15T05:33:52;24.43;;;21.93;;
17566;SDS011;8901;52.088;5.084;2022-11-15T05:36:21;21.47;;;19.30;;
17566;SDS011;8901;52.088;5.084;2022-11-15T05:38:50;20.60;;;17.77;;
17566;SDS011;8901;52.088;5.084;2022-11-15T05:41:17;21.57;;;19.47;;
17566;SDS011;8901;52.088;5.084;2022-11-15T05:43:45;20.27;;;18.23;;
17566;SDS011;8901;52.088;5.084;2022-11-15T05:46:15;21.73;;;19.63;;
17566;SDS011;8901;52.088;5.084;2022-11-15T05:48:45;20.03;;;18.23;;
17566;SDS011;8901;52.088;5.084;2022-11-15T05:51:14;20.53;;;18.53;;
17566;SDS011;8901;52.088;5.084;2022-11-15T05:53:42;22.00;;;19.97;;
17566;SDS011;8901;52.088;5.084;2022-11-15T05:56:09;20.00;;;18.30;;
17566;SDS011;8901;52.088;5.084;2022-11-15T05:58:37;20.70;;;18.53;;
17566;SDS011;8901;52.088;5.084;2022-11-15T06:01:04;18.63;;;17.03;;
17566;SDS011;8901;52.088;5.084;2022-11-15T06:03:40;19.93;;;18.10;;
17566;SDS011;8901;52.088;5.084;2022-11-15T06:06:09;19.10;;;17.40;;
17566;SDS011;8901;52.088;5.084;2022-11-15T06:08:52;19.87;;;18.03;;
17566;SDS011;8901;52.088;5.084;2022-11-15T06:11:19;17.73;;;16.03;;
17566;SDS011;8901;52.088;5.084;2022-11-15T06:13:46;19.33;;;17.43;;
17566;SDS011;8901;52.088;5.084;2022-11-15T06:16:13;18.63;;;16.83;;
17566;SDS011;8901;52.088;5.084;2022-11-15T06:18:41;19.23;;;17.40;;
17566;SDS011;8901;52.088;5.084;2022-11-15T06:21:09;19.30;;;17.23;;
17566;SDS011;8901;52.088;5.084;2022-11-15T06:23:36;19.87;;;17.97;;
17566;SDS011;8901;52.088;5.084;2022-11-15T06:26:04;20.87;;;18.93;;
17566;SDS011;8901;52.088;5.084;2022-11-15T06:28:31;21.07;;;18.87;;
17566;SDS011;8901;52.088;5.084;2022-11-15T06:31:02;18.83;;;17.03;;
17566;SDS011;8901;52.088;5.084;2022-11-15T06:33:29;18.90;;;17.07;;
17566;SDS011;8901;52.088;5.084;2022-11-15T06:35:59;19.73;;;17.83;;
17566;SDS011;8901;52.088;5.084;2022-11-15T06:38:28;18.87;;;16.97;;
17566;SDS011;8901;52.088;5.084;2022-11-15T06:40:55;17.50;;;15.93;;
17566;SDS011;8901;52.088;5.084;2022-11-15T06:43:27;19.47;;;17.57;;
17566;SDS011;8901;52.088;5.084;2022-11-15T06:45:54;17.47;;;15.73;;
17566;SDS011;8901;52.088;5.084;2022-11-15T06:48:21;17.80;;;16.10;;
17566;SDS011;8901;52.088;5.084;2022-11-15T06:50:50;20.10;;;18.30;;
17566;SDS011;8901;52.088;5.084;2022-11-15T06:53:17;17.53;;;15.93;;
17566;SDS011;8901;52.088;5.084;2022-11-15T06:55:46;22.53;;;18.53;;
17566;SDS011;8901;52.088;5.084;2022-11-15T06:58:13;20.23;;;18.23;;
17566;SDS011;8901;52.088;5.084;2022-11-15T07:00:41;21.53;;;19.37;;
17566;SDS011;8901;52.088;5.084;2022-11-15T07:03:08;19.73;;;17.83;;
17566;SDS011;8901;52.088;5.084;2022-11-15T07:11:44;17.27;;;14.67;;
17566;SDS011;8901;52.088;5.084;2022-11-15T07:14:11;15.80;;;14.37;;
17566;SDS011;8901;52.088;5.084;2022-11-15T07:16:41;18.27;;;15.70;;
17566;SDS011;8901;52.088;5.084;2022-11-15T07:19:08;17.20;;;15.70;;
17566;SDS011;8901;52.088;5.084;2022-11-15T07:21:36;16.83;;;14.47;;
17566;SDS011;8901;52.088;5.084;2022-11-15T07:24:04;19.47;;;17.53;;
17566;SDS011;8901;52.088;5.084;2022-11-15T07:26:31;20.47;;;18.30;;
17566;SDS011;8901;52.088;5.084;2022-11-15T07:29:00;20.50;;;18.37;;
17566;SDS011;8901;52.088;5.084;2022-11-15T07:31:27;21.97;;;19.83;;
17566;SDS011;8901;52.088;5.084;2022-11-15T07:33:54;20.93;;;18.80;;
17566;SDS011;8901;52.088;5.084;2022-11-15T07:36:21;19.97;;;18.07;;
17566;SDS011;8901;52.088;5.084;2022-11-15T07:38:48;21.30;;;17.83;;
17566;SDS011;8901;52.088;5.084;2022-11-15T07:41:15;19.93;;;18.10;;
17566;SDS011;8901;52.088;5.084;2022-11-15T07:43:42;22.20;;;18.13;;
17566;SDS011;8901;52.088;5.084;2022-11-15T07:46:11;20.67;;;18.77;;
17566;SDS011;8901;52.088;5.084;2022-11-15T07:48:38;19.30;;;17.40;;
17566;SDS011;8901;52.088;5.084;2022-11-15T07:51:06;19.07;;;17.07;;
17566;SDS011;8901;52.088;5.084;2022-11-15T07:53:33;20.43;;;18.57;;
17566;SDS011;8901;52.088;5.084;2022-11-15T07:56:01;20.53;;;17.43;;
17566;SDS011;8901;52.088;5.084;2022-11-15T07:58:28;19.27;;;17.63;;
17566;SDS011;8901;52.088;5.084;2022-11-15T08:00:55;19.63;;;17.67;;
17566;SDS011;8901;52.088;5.084;2022-11-15T08:03:24;20.13;;;18.30;;
17566;SDS011;8901;52.088;5.084;2022-11-15T08:05:51;19.73;;;18.13;;
17566;SDS011;8901;52.088;5.084;2022-11-15T08:08:18;19.73;;;17.97;;
17566;SDS011;8901;52.088;5.084;2022-11-15T08:10:45;20.17;;;18.30;;
17566;SDS011;8901;52.088;5.084;2022-11-15T08:13:13;20.30;;;18.43;;
17566;SDS011;8901;52.088;5.084;2022-11-15T08:15:40;19.73;;;17.77;;
17566;SDS011;8901;52.088;5.084;2022-11-15T08:18:09;19.47;;;17.60;;
17566;SDS011;8901;52.088;5.084;2022-11-15T08:20:39;19.93;;;17.93;;
17566;SDS011;8901;52.088;5.084;2022-11-15T08:23:06;23.63;;;17.27;;
17566;SDS011;8901;52.088;5.084;2022-11-15T08:25:34;17.13;;;15.70;;
17566;SDS011;8901;52.088;5.084;2022-11-15T08:28:02;20.00;;;16.13;;
17566;SDS011;8901;52.088;5.084;2022-11-15T08:30:29;19.73;;;17.67;;
17566;SDS011;8901;52.088;5.084;2022-11-15T08:32:57;17.97;;;16.20;;
17566;SDS011;8901;52.088;5.084;2022-11-15T08:35:25;17.23;;;15.47;;
17566;SDS011;8901;52.088;5.084;2022-11-15T08:37:53;17.90;;;15.53;;
17566;SDS011;8901;52.088;5.084;2022-11-15T08:40:20;17.37;;;15.77;;
17566;SDS011;8901;52.088;5.084;2022-11-15T08:42:48;16.67;;;15.10;;
17566;SDS011;8901;52.088;5.084;2022-11-15T08:45:15;19.07;;;15.30;;
17566;SDS011;8901;52.088;5.084;2022-11-15T08:47:42;18.30;;;16.30;;
17566;SDS011;8901;52.088;5.084;2022-11-15T08:50:09;17.10;;;15.30;;
17566;SDS011;8901;52.088;5.084;2022-11-15T08:52:36;18.13;;;16.40;;
17566;SDS011;8901;52.088;5.084;2022-11-15T08:55:05;17.43;;;16.10;;
17566;SDS011;8901;52.088;5.084;2022-11-15T08:57:33;18.90;;;13.93;;
17566;SDS011;8901;52.088;5.084;2022-11-15T09:00:00;16.53;;;14.77;;
17566;SDS011;8901;52.088;5.084;2022-11-15T09:02:27;15.97;;;14.37;;
17566;SDS011;8901;52.088;5.084;2022-11-15T09:04:54;15.87;;;14.43;;
17566;SDS011;8901;52.088;5.084;2022-11-15T09:07:21;16.30;;;14.73;;
17566;SDS011;8901;52.088;5.084;2022-11-15T09:09:49;15.87;;;14.23;;
17566;SDS011;8901;52.088;5.084;2022-11-15T09:12:17;16.47;;;14.80;;
17566;SDS011;8901;52.088;5.084;2022-11-15T09:14:44;16.17;;;14.47;;
17566;SDS011;8901;52.088;5.084;2022-11-15T09:17:11;15.73;;;14.33;;
17566;SDS011;8901;52.088;5.084;2022-11-15T09:19:38;14.47;;;13.27;;
17566;SDS011;8901;52.088;5.084;2022-11-15T09:22:06;15.90;;;14.50;;
17566;SDS011;8901;52.088;5.084;2022-11-15T09:24:33;16.03;;;14.60;;
17566;SDS011;8901;52.088;5.084;2022-11-15T09:27:01;15.73;;;14.20;;
17566;SDS011;8901;52.088;5.084;2022-11-15T09:29:29;16.57;;;14.97;;
17566;SDS011;8901;52.088;5.084;2022-11-15T09:31:56;16.13;;;14.70;;
17566;SDS011;8901;52.088;5.084;2022-11-15T09:34:23;16.83;;;15.43;;
17566;SDS011;8901;52.088;5.084;2022-11-15T09:36:51;17.50;;;15.83;;
17566;SDS011;8901;52.088;5.084;2022-11-15T09:39:18;15.37;;;14.07;;
17566;SDS011;8901;52.088;5.084;2022-11-15T09:41:55;17.33;;;15.83;;
17566;SDS011;8901;52.088;5.084;2022-11-15T09:44:40;16.60;;;15.30;;
17566;SDS011;8901;52.088;5.084;2022-11-15T09:49:53;17.20;;;15.80;;
17566;SDS011;8901;52.088;5.084;2022-11-15T09:52:21;16.00;;;14.50;;
17566;SDS011;8901;52.088;5.084;2022-11-15T09:54:49;15.50;;;14.30;;
17566;SDS011;8901;52.088;5.084;2022-11-15T09:57:17;14.50;;;13.30;;
17566;SDS011;8901;52.088;5.084;2022-11-15T09:59:49;15.80;;;14.63;;
17566;SDS011;8901;52.088;5.084;2022-11-15T10:02:21;16.30;;;15.00;;
17566;SDS011;8901;52.088;5.084;2022-11-15T10:04:50;16.40;;;15.20;;
17566;SDS011;8901;52.088;5.084;2022-11-15T10:07:19;15.40;;;14.20;;
17566;SDS011;8901;52.088;5.084;2022-11-15T10:09:48;14.87;;;13.47;;
17566;SDS011;8901;52.088;5.084;2022-11-15T10:12:16;14.13;;;13.03;;
17566;SDS011;8901;52.088;5.084;2022-11-15T10:14:43;15.40;;;14.10;;
17566;SDS011;8901;52.088;5.084;2022-11-15T10:17:33;15.97;;;14.67;;
17566;SDS011;8901;52.088;5.084;2022-11-15T10:20:07;14.23;;;13.00;;
17566;SDS011;8901;52.088;5.084;2022-11-15T10:25:35;16.27;;;14.87;;
17566;SDS011;8901;52.088;5.084;2022-11-15T10:28:06;14.83;;;13.73;;
17566;SDS011;8901;52.088;5.084;2022-11-15T10:33:59;13.47;;;12.57;;
17566;SDS011;8901;52.088;5.084;2022-11-15T10:36:37;14.17;;;13.17;;
17566;SDS011;8901;52.088;5.084;2022-11-15T10:39:04;14.77;;;13.50;;
17566;SDS011;8901;52.088;5.084;2022-11-15T10:41:32;14.33;;;12.97;;
17566;SDS011;8901;52.088;5.084;2022-11-15T10:44:03;14.03;;;12.83;;
17566;SDS011;8901;52.088;5.084;2022-11-15T10:46:34;12.87;;;11.97;;
17566;SDS011;8901;52.088;5.084;2022-11-15T10:49:11;13.30;;;12.40;;
17566;SDS011;8901;52.088;5.084;2022-11-15T10:51:41;18.00;;;14.60;;
17566;SDS011;8901;52.088;5.084;2022-11-15T10:54:09;14.53;;;13.40;;
17566;SDS011;8901;52.088;5.084;2022-11-15T10:56:38;15.20;;;13.90;;
17566;SDS011;8901;52.088;5.084;2022-11-15T10:59:09;14.93;;;13.93;;
17566;SDS011;8901;52.088;5.084;2022-11-15T11:01:45;14.07;;;13.03;;
17566;SDS011;8901;52.088;5.084;2022-11-15T11:04:14;13.50;;;12.37;;
17566;SDS011;8901;52.088;5.084;2022-11-15T11:06:47;14.30;;;13.30;;
17566;SDS011;8901;52.088;5.084;2022-11-15T11:18:01;15.13;;;13.83;;
17566;SDS011;8901;52.088;5.084;2022-11-15T11:20:32;15.63;;;14.40;;
17566;SDS011;8901;52.088;5.084;2022-11-15T11:23:02;14.47;;;13.37;;
17566;SDS011;8901;52.088;5.084;2022-11-15T11:25:33;13.87;;;12.80;;
17566;SDS011;8901;52.088;5.084;2022-11-15T11:28:05;13.90;;;12.83;;
17566;SDS011;8901;52.088;5.084;2022-11-15T11:30:40;12.70;;;11.80;;
17566;SDS011;8901;52.088;5.084;2022-11-15T11:33:10;15.37;;;14.07;;
17566;SDS011;8901;52.088;5.084;2022-11-15T11:35:43;17.43;;;16.13;;
17566;SDS011;8901;52.088;5.084;2022-11-15T11:38:19;16.97;;;15.47;;
17566;SDS011;8901;52.088;5.084;2022-11-15T11:40:52;17.57;;;15.93;;
17566;SDS011;8901;52.088;5.084;2022-11-15T11:43:23;21.00;;;19.10;;
17566;SDS011;8901;52.088;5.084;2022-11-15T11:46:10;20.30;;;18.60;;
17566;SDS011;8901;52.088;5.084;2022-11-15T11:48:40;17.07;;;15.17;;
17566;SDS011;8901;52.088;5.084;2022-11-15T11:51:11;17.67;;;16.27;;
17566;SDS011;8901;52.088;5.084;2022-11-15T11:53:40;19.07;;;17.27;;
17566;SDS011;8901;52.088;5.084;2022-11-15T11:56:12;15.37;;;14.03;;
17566;SDS011;8901;52.088;5.084;2022-11-15T11:58:41;17.63;;;16.33;;
17566;SDS011;8901;52.088;5.084;2022-11-15T12:01:10;18.50;;;17.00;;
17566;SDS011;8901;52.088;5.084;2022-11-15T12:03:39;15.03;;;13.53;;
17566;SDS011;8901;52.088;5.084;2022-11-15T12:06:14;13.60;;;12.43;;
17566;SDS011;8901;52.088;5.084;2022-11-15T12:08:45;19.50;;;17.70;;
17566;SDS011;8901;52.088;5.084;2022-11-15T12:11:14;16.40;;;15.20;;
17566;SDS011;8901;52.088;5.084;2022-11-15T12:13:42;16.37;;;15.07;;
17566;SDS011;8901;52.088;5.084;2022-11-15T12:16:12;16.70;;;15.30;;
17566;SDS011;8901;52.088;5.084;2022-11-15T12:18:41;16.13;;;14.50;;
17566;SDS011;8901;52.088;5.084;2022-11-15T12:21:15;17.03;;;15.33;;
17566;SDS011;8901;52.088;5.084;2022-11-15T12:23:44;18.23;;;15.70;;
17566;SDS011;8901;52.088;5.084;2022-11-15T12:26:15;18.40;;;16.43;;
17566;SDS011;8901;52.088;5.084;2022-11-15T12:28:45;17.00;;;15.57;;
17566;SDS011;8901;52.088;5.084;2022-11-15T12:31:14;15.03;;;13.80;;
17566;SDS011;8901;52.088;5.084;2022-11-15T12:33:45;15.33;;;14.13;;
17566;SDS011;8901;52.088;5.084;2022-11-15T12:39:07;14.97;;;13.50;;
17566;SDS011;8901;52.088;5.084;2022-11-15T12:41:37;15.60;;;14.27;;
17566;SDS011;8901;52.088;5.084;2022-11-15T12:44:05;16.73;;;15.23;;
17566;SDS011;8901;52.088;5.084;2022-11-15T12:52:08;15.20;;;14.00;;
17566;SDS011;8901;52.088;5.084;2022-11-15T12:57:38;16.77;;;13.63;;
17566;SDS011;8901;52.088;5.084;2022-11-15T13:02:55;16.30;;;14.47;;
17566;SDS011;8901;52.088;5.084;2022-11-15T13:05:55;16.20;;;14.80;;
17566;SDS011;8901;52.088;5.084;2022-11-15T13:08:36;14.70;;;13.73;;
17566;SDS011;8901;52.088;5.084;2022-11-15T13:13:48;16.50;;;14.87;;
17566;SDS011;8901;52.088;5.084;2022-11-15T13:16:17;14.53;;;13.53;;
17566;SDS011;8901;52.088;5.084;2022-11-15T13:18:52;16.07;;;14.97;;
17566;SDS011;8901;52.088;5.084;2022-11-15T13:21:21;14.77;;;13.67;;
17566;SDS011;8901;52.088;5.084;2022-11-15T13:24:10;15.13;;;14.07;;
17566;SDS011;8901;52.088;5.084;2022-11-15T13:29:33;14.17;;;13.00;;
17566;SDS011;8901;52.088;5.084;2022-11-15T13:32:00;14.67;;;13.57;;
17566;SDS011;8901;52.088;5.084;2022-11-15T13:34:28;14.20;;;13.10;;
17566;SDS011;8901;52.088;5.084;2022-11-15T13:36:58;13.70;;;12.67;;
17566;SDS011;8901;52.088;5.084;2022-11-15T13:39:27;15.43;;;13.93;;
17566;SDS011;8901;52.088;5.084;2022-11-15T13:41:55;16.47;;;13.50;;
17566;SDS011;8901;52.088;5.084;2022-11-15T13:44:23;14.00;;;12.77;;
17566;SDS011;8901;52.088;5.084;2022-11-15T13:47:01;13.47;;;12.30;;
17566;SDS011;8901;52.088;5.084;2022-11-15T13:49:29;14.33;;;12.43;;
17566;SDS011;8901;52.088;5.084;2022-11-15T13:51:57;15.10;;;13.83;;
17566;SDS011;8901;52.088;5.084;2022-11-15T13:54:25;14.97;;;13.67;;
17566;SDS011;8901;52.088;5.084;2022-11-15T13:56:55;14.33;;;13.03;;
17566;SDS011;8901;52.088;5.084;2022-11-15T13:59:24;15.10;;;13.80;;
17566;SDS011;8901;52.088;5.084;2022-11-15T14:01:51;16.20;;;14.90;;
17566;SDS011;8901;52.088;5.084;2022-11-15T14:04:21;15.27;;;13.80;;
17566;SDS011;8901;52.088;5.084;2022-11-15T14:06:49;14.63;;;13.37;;
17566;SDS011;8901;52.088;5.084;2022-11-15T14:09:31;15.17;;;13.80;;
17566;SDS011;8901;52.088;5.084;2022-11-15T14:11:59;14.60;;;13.43;;
17566;SDS011;8901;52.088;5.084;2022-11-15T14:14:27;14.67;;;13.43;;
17566;SDS011;8901;52.088;5.084;2022-11-15T14:16:55;14.20;;;13.00;;
17566;SDS011;8901;52.088;5.084;2022-11-15T14:19:37;14.00;;;13.00;;
17566;SDS011;8901;52.088;5.084;2022-11-15T14:22:08;14.17;;;12.93;;
17566;SDS011;8901;52.088;5.084;2022-11-15T14:24:35;13.77;;;12.87;;
17566;SDS011;8901;52.088;5.084;2022-11-15T14:27:15;13.80;;;12.70;;
17566;SDS011;8901;52.088;5.084;2022-11-15T14:29:43;14.37;;;13.30;;
17566;SDS011;8901;52.088;5.084;2022-11-15T14:32:12;14.30;;;13.20;;
17566;SDS011;8901;52.088;5.084;2022-11-15T14:34:40;13.90;;;12.70;;
17566;SDS011;8901;52.088;5.084;2022-11-15T14:37:10;14.23;;;13.03;;
17566;SDS011;8901;52.088;5.084;2022-11-15T14:39:43;13.97;;;12.90;;
17566;SDS011;8901;52.088;5.084;2022-11-15T14:42:10;17.73;;;14.77;;
17566;SDS011;8901;52.088;5.084;2022-11-15T14:44:37;15.93;;;14.43;;
17566;SDS011;8901;52.088;5.084;2022-11-15T14:47:04;19.57;;;14.83;;
17566;SDS011;8901;52.088;5.084;2022-11-15T14:49:31;15.17;;;13.93;;
17566;SDS011;8901;52.088;5.084;2022-11-15T14:52:00;14.90;;;13.80;;
17566;SDS011;8901;52.088;5.084;2022-11-15T14:54:27;22.13;;;15.23;;
17566;SDS011;8901;52.088;5.084;2022-11-15T14:56:54;16.87;;;15.30;;
17566;SDS011;8901;52.088;5.084;2022-11-15T14:59:21;15.60;;;14.30;;
17566;SDS011;8901;52.088;5.084;2022-11-15T15:01:49;16.57;;;15.20;;
17566;SDS011;8901;52.088;5.084;2022-11-15T15:04:16;15.73;;;14.17;;
17566;SDS011;8901;52.088;5.084;2022-11-15T15:06:43;14.03;;;13.03;;
17566;SDS011;8901;52.088;5.084;2022-11-15T15:09:11;14.90;;;13.67;;
17566;SDS011;8901;52.088;5.084;2022-11-15T15:11:38;14.93;;;13.87;;
17566;SDS011;8901;52.088;5.084;2022-11-15T15:14:05;15.27;;;14.23;;
17566;SDS011;8901;52.088;5.084;2022-11-15T15:16:33;14.60;;;13.40;;
17566;SDS011;8901;52.088;5.084;2022-11-15T15:19:00;15.27;;;13.83;;
17566;SDS011;8901;52.088;5.084;2022-11-15T15:21:27;16.60;;;14.93;;
17566;SDS011;8901;52.088;5.084;2022-11-15T15:23:56;15.43;;;14.23;;
17566;SDS011;8901;52.088;5.084;2022-11-15T15:26:25;15.00;;;13.70;;
17566;SDS011;8901;52.088;5.084;2022-11-15T15:28:52;15.87;;;14.57;;
17566;SDS011;8901;52.088;5.084;2022-11-15T15:31:19;16.37;;;14.97;;
17566;SDS011;8901;52.088;5.084;2022-11-15T15:33:46;14.90;;;13.80;;
17566;SDS011;8901;52.088;5.084;2022-11-15T15:36:14;15.37;;;14.03;;
17566;SDS011;8901;52.088;5.084;2022-11-15T15:38:43;15.53;;;14.37;;
17566;SDS011;8901;52.088;5.084;2022-11-15T15:41:11;16.97;;;15.57;;
17566;SDS011;8901;52.088;5.084;2022-11-15T15:43:40;15.60;;;14.10;;
17566;SDS011;8901;52.088;5.084;2022-11-15T15:46:08;15.87;;;14.67;;
17566;SDS011;8901;52.088;5.084;2022-11-15T15:48:35;16.10;;;14.90;;
17566;SDS011;8901;52.088;5.084;2022-11-15T15:51:04;15.80;;;14.70;;
17566;SDS011;8901;52.088;5.084;2022-11-15T15:53:31;17.10;;;16.00;;
17566;SDS011;8901;52.088;5.084;2022-11-15T15:55:59;15.73;;;14.57;;
17566;SDS011;8901;52.088;5.084;2022-11-15T15:58:26;16.13;;;14.90;;
17566;SDS011;8901;52.088;5.084;2022-11-15T16:00:54;14.97;;;13.80;;
17566;SDS011;8901;52.088;5.084;2022-11-15T16:03:21;16.20;;;14.83;;
17566;SDS011;8901;52.088;5.084;2022-11-15T16:05:49;13.93;;;12.93;;
17566;SDS011;8901;52.088;5.084;2022-11-15T16:08:17;12.97;;;11.87;;
17566;SDS011;8901;52.088;5.084;2022-11-15T16:10:45;12.70;;;11.70;;
17566;SDS011;8901;52.088;5.084;2022-11-15T16:13:12;14.67;;;13.57;;
17566;SDS011;8901;52.088;5.084;2022-11-15T16:15:39;14.30;;;12.90;;